Time;durP1;ratioP1;P1;durP2;ratioP2;P2;SDS_P1;SDS_P2;PMS_P1;PMS_P2;Temp;Humidity;BMP_temperature;BMP_pressure;BME280_temperature;BME280_humidity;BME280_pressure;Samples;Min_cycle;Max_cycle;Signal;HPM_P1;HPM_P2
2021/01/26 00:00:10;;;;;;;;;;;0.80;99.90;;;;;;5079516;28;19929;-67
2021/01/26 00:02:36;;;;;;;;;;;0.80;99.90;;;;;;5085758;28;19920;-67
2021/01/26 00:05:02;;;;;;;;;;;0.80;99.90;;;;;;5080266;28;19916;-67
2021/01/26 00:07:28;;;;;;;;;;;0.70;99.90;;;;;;5065331;28;20364;-67
2021/01/26 00:09:54;;;;;;;;;;;0.60;99.90;;;;;;5090329;28;19920;-67
2021/01/26 00:12:20;;;;;;;;;;;0.60;99.90;;;;;;5092125;28;19912;-67
2021/01/26 00:14:46;;;;;;;;;;;0.60;99.90;;;;;;5086284;28;19957;-67
2021/01/26 00:17:12;;;;;;;;;;;0.60;99.90;;;;;;5089611;28;19916;-67
2021/01/26 00:19:38;;;;;;;;;;;0.60;99.90;;;;;;5086383;28;19969;-67
2021/01/26 00:22:04;;;;;;;;;;;0.60;99.90;;;;;;5088612;28;20159;-67
2021/01/26 00:24:30;;;;;;;;;;;0.50;99.90;;;;;;5088664;28;19965;-67
2021/01/26 00:26:56;;;;;;;;;;;0.50;99.90;;;;;;5084507;28;19974;-67
2021/01/26 00:29:21;;;;;;;;;;;0.50;99.90;;;;;;5086505;28;20018;-67
2021/01/26 00:31:47;;;;;;;;;;;0.50;99.90;;;;;;5082785;28;19921;-67
2021/01/26 00:34:13;;;;;;;;;;;0.40;99.90;;;;;;5084579;28;19925;-67
2021/01/26 00:36:39;;;;;;;;;;;0.40;99.90;;;;;;5092216;28;19912;-66
2021/01/26 00:39:05;;;;;;;;;;;0.40;99.90;;;;;;5085706;28;19924;-67
2021/01/26 00:41:31;;;;;;;;;;;0.40;99.90;;;;;;5091453;28;20361;-67
2021/01/26 00:43:57;;;;;;;;;;;0.40;99.90;;;;;;5087545;28;19977;-67
2021/01/26 00:46:23;;;;;;;;;;;0.30;99.90;;;;;;5078789;28;20357;-67
2021/01/26 00:48:49;;;;;;;;;;;0.30;99.90;;;;;;5085691;28;19970;-67
2021/01/26 00:51:15;;;;;;;;;;;0.20;99.90;;;;;;5079423;28;19946;-67
2021/01/26 00:53:41;;;;;;;;;;;0.20;99.90;;;;;;5083055;28;19952;-66
2021/01/26 00:56:07;;;;;;;;;;;0.20;99.90;;;;;;5079485;28;19929;-67
2021/01/26 00:58:33;;;;;;;;;;;0.20;99.90;;;;;;5086729;28;19969;-67
2021/01/26 01:00:59;;;;;;;;;;;0.20;99.90;;;;;;5086394;28;19908;-67
2021/01/26 01:03:25;;;;;;;;;;;0.20;99.90;;;;;;5086827;28;20365;-67
2021/01/26 01:05:51;;;;;;;;;;;0.10;99.90;;;;;;5088104;28;20361;-67
2021/01/26 01:08:16;;;;;;;;;;;0.20;99.90;;;;;;5083922;28;20365;-67
2021/01/26 01:10:42;;;;;;;;;;;0.10;99.90;;;;;;5082623;28;20018;-67
2021/01/26 01:13:09;;;;;;;;;;;0.20;99.90;;;;;;5083617;28;19922;-67
2021/01/26 01:15:35;;;;;;;;;;;0.20;99.90;;;;;;5087367;28;20257;-67
2021/01/26 01:18:01;;;;;;;;;;;0.20;99.90;;;;;;5086583;28;20376;-67
2021/01/26 01:20:27;;;;;;;;;;;0.20;99.90;;;;;;5083616;28;20011;-67
2021/01/26 01:22:53;;;;;;;;;;;0.20;99.90;;;;;;5083891;28;20112;-67
2021/01/26 01:25:19;;;;;;;;;;;0.20;99.90;;;;;;5084633;28;19912;-67
2021/01/26 01:27:45;;;;;;;;;;;0.20;99.90;;;;;;5080558;28;20324;-67
2021/01/26 01:30:12;;;;;;;;;;;0.20;99.90;;;;;;5087168;28;19924;-67
2021/01/26 01:32:38;;;;;;;;;;;0.20;99.90;;;;;;5062009;28;19912;-67
2021/01/26 01:35:04;;;;;;;;;;;0.20;99.90;;;;;;5082410;28;19912;-67
2021/01/26 01:37:30;;;;;;;;;;;0.20;99.90;;;;;;5087244;28;19912;-67
2021/01/26 01:39:56;;;;;;;;;;;0.20;99.90;;;;;;5090014;28;19912;-67
2021/01/26 01:42:22;;;;;;;;;;;0.10;99.90;;;;;;5088537;28;19917;-67
2021/01/26 01:44:48;;;;;;;;;;;0.10;99.90;;;;;;5085021;28;20288;-67
2021/01/26 01:47:16;;;;;;;;;;;0.10;99.90;;;;;;5086180;28;19923;-67
2021/01/26 01:49:43;;;;;;;;;;;0.00;99.90;;;;;;5085245;28;20319;-67
2021/01/26 01:52:16;;;;;;;;;;;0.00;99.90;;;;;;5087971;28;19912;-67
2021/01/26 01:54:43;;;;;;;;;;;0.00;99.90;;;;;;5087046;28;20285;-67
2021/01/26 01:57:29;;;;;;;;;;;0.00;99.90;;;;;;5085146;28;19916;-67
2021/01/26 01:59:56;;;;;;;;;;;0.00;99.90;;;;;;5084244;28;19913;-67
2021/01/26 02:02:22;;;;;;;;;;;0.10;99.90;;;;;;5074106;28;19915;-67
2021/01/26 02:04:48;;;;;;;;;;;0.00;99.90;;;;;;5074275;28;19915;-66
2021/01/26 02:07:14;;;;;;;;;;;0.00;99.90;;;;;;5088945;28;19908;-67
2021/01/26 02:09:40;;;;;;;;;;;0.00;99.90;;;;;;5086183;28;19942;-67
2021/01/26 02:12:06;;;;;;;;;;;0.00;99.90;;;;;;5084633;28;20380;-67
2021/01/26 02:14:33;;;;;;;;;;;0.00;99.90;;;;;;5083749;28;19916;-67
2021/01/26 02:17:01;;;;;;;;;;;0.00;99.90;;;;;;5091505;28;19908;-67
2021/01/26 02:19:39;;;;;;;;;;;0.00;99.90;;;;;;5087777;28;19916;-67
2021/01/26 02:22:24;;;;;;;;;;;0.00;99.90;;;;;;5087449;28;19912;-67
2021/01/26 02:24:52;;;;;;;;;;;0.10;99.90;;;;;;5088358;28;20284;-67
2021/01/26 02:27:37;;;;;;;;;;;0.10;99.90;;;;;;5085420;28;19943;-67
2021/01/26 02:30:06;;;;;;;;;;;0.10;99.90;;;;;;5083183;28;19927;-66
2021/01/26 02:32:50;;;;;;;;;;;0.10;99.90;;;;;;5086663;28;19908;-67
2021/01/26 02:35:31;;;;;;;;;;;0.10;99.90;;;;;;5091976;28;19919;-67
2021/01/26 02:38:09;;;;;;;;;;;0.10;99.90;;;;;;5086805;28;19912;-67
2021/01/26 02:40:47;;;;;;;;;;;0.10;99.90;;;;;;5080890;28;19936;-67
2021/01/26 02:43:25;;;;;;;;;;;0.10;99.90;;;;;;5087862;28;19927;-67
2021/01/26 02:45:54;;;;;;;;;;;0.10;99.90;;;;;;5086644;28;19921;-67
2021/01/26 02:48:23;;;;;;;;;;;0.10;99.90;;;;;;5085053;28;19923;-67
2021/01/26 02:50:56;;;;;;;;;;;0.10;99.90;;;;;;5085435;28;19923;-67
2021/01/26 02:53:25;;;;;;;;;;;0.10;99.90;;;;;;5079289;28;19913;-67
2021/01/26 02:56:09;;;;;;;;;;;0.10;99.90;;;;;;5083424;28;19916;-67
2021/01/26 02:58:36;;;;;;;;;;;0.10;99.90;;;;;;5086340;28;19931;-67
2021/01/26 03:01:02;;;;;;;;;;;0.00;99.90;;;;;;5088149;28;19916;-67
2021/01/26 03:03:31;;;;;;;;;;;-0.10;99.90;;;;;;5081794;28;19978;-67
2021/01/26 03:05:58;;;;;;;;;;;-0.10;99.90;;;;;;5088268;28;19912;-67
2021/01/26 03:08:39;;;;;;;;;;;-0.10;99.90;;;;;;5085946;28;19923;-66
2021/01/26 03:11:07;;;;;;;;;;;-0.10;99.90;;;;;;5087277;28;19912;-66
2021/01/26 03:13:34;;;;;;;;;;;-0.10;99.90;;;;;;5085446;28;20365;-67
2021/01/26 03:16:02;;;;;;;;;;;-0.10;99.90;;;;;;5088605;28;19912;-67
2021/01/26 03:18:48;;;;;;;;;;;0.00;99.90;;;;;;5087378;28;19912;-67
2021/01/26 03:21:15;;;;;;;;;;;0.00;99.90;;;;;;5084636;28;19939;-66
2021/01/26 03:23:45;;;;;;;;;;;0.00;99.90;;;;;;5089920;28;19916;-67
2021/01/26 03:26:15;;;;;;;;;;;0.00;99.90;;;;;;5086044;28;19920;-67
2021/01/26 03:28:42;;;;;;;;;;;0.00;99.90;;;;;;5083608;28;19924;-66
2021/01/26 03:31:08;;;;;;;;;;;0.00;99.90;;;;;;5083789;28;19919;-66
2021/01/26 03:33:38;;;;;;;;;;;0.00;99.90;;;;;;5081595;28;19913;-66
2021/01/26 03:36:04;;;;;;;;;;;0.00;99.90;;;;;;5085217;28;19923;-66
2021/01/26 03:38:30;;;;;;;;;;;0.00;99.90;;;;;;5085125;28;19913;-67
2021/01/26 03:40:57;;;;;;;;;;;-0.10;99.90;;;;;;5087221;28;19923;-66
2021/01/26 03:43:23;;;;;;;;;;;-0.10;99.90;;;;;;5088954;28;19920;-66
2021/01/26 03:46:07;;;;;;;;;;;-0.10;99.90;;;;;;5091592;28;19919;-66
2021/01/26 03:48:41;;;;;;;;;;;-0.20;99.90;;;;;;5090357;28;19923;-66
2021/01/26 03:51:09;;;;;;;;;;;-0.20;99.90;;;;;;5087539;28;19916;-66
2021/01/26 03:53:53;;;;;;;;;;;-0.20;99.90;;;;;;5086067;28;19912;-66
2021/01/26 03:56:22;;;;;;;;;;;-0.20;99.90;;;;;;5076960;28;19924;-66
2021/01/26 03:59:14;;;;;;;;;;;-0.20;99.90;;;;;;5084457;28;20284;-66
2021/01/26 04:01:52;;;;;;;;;;;-0.20;99.90;;;;;;5077281;28;19923;-66
2021/01/26 04:04:38;;;;;;;;;;;-0.20;99.90;;;;;;5090436;28;19908;-66
2021/01/26 04:07:05;;;;;;;;;;;-0.20;99.90;;;;;;5092127;28;20376;-66
2021/01/26 04:15:41;;;;;;;;;;;-0.20;99.90;;;;;;5098281;28;19915;-67
2021/01/26 04:18:07;;;;;;;;;;;-0.20;99.90;;;;;;5086321;28;19923;-67
2021/01/26 04:20:33;;;;;;;;;;;-0.20;99.90;;;;;;5084396;28;20353;-67
2021/01/26 04:22:59;;;;;;;;;;;-0.20;99.90;;;;;;5083577;28;19912;-67
2021/01/26 04:25:28;;;;;;;;;;;-0.30;99.90;;;;;;5086986;28;20264;-67
2021/01/26 04:27:54;;;;;;;;;;;-0.30;99.90;;;;;;5086837;28;19916;-67
2021/01/26 04:30:20;;;;;;;;;;;-0.20;99.90;;;;;;5080653;28;19920;-67
2021/01/26 04:32:46;;;;;;;;;;;-0.30;99.90;;;;;;5098880;28;19923;-67
2021/01/26 04:35:12;;;;;;;;;;;-0.30;99.90;;;;;;5085572;28;19912;-67
2021/01/26 04:37:38;;;;;;;;;;;-0.30;99.90;;;;;;5082785;28;19919;-67
2021/01/26 04:40:04;;;;;;;;;;;-0.30;99.90;;;;;;5081843;28;19917;-70
2021/01/26 04:42:30;;;;;;;;;;;-0.30;99.90;;;;;;5081201;28;19927;-67
2021/01/26 04:44:56;;;;;;;;;;;-0.20;99.90;;;;;;5084565;28;20014;-67
2021/01/26 04:47:23;;;;;;;;;;;-0.20;99.90;;;;;;5085343;28;19916;-67
2021/01/26 04:50:08;;;;;;;;;;;-0.30;99.90;;;;;;5083311;28;19923;-67
2021/01/26 04:52:37;;;;;;;;;;;-0.30;99.90;;;;;;5085700;28;19912;-67
2021/01/26 04:55:03;;;;;;;;;;;-0.30;99.90;;;;;;5087879;28;19908;-67
2021/01/26 04:57:32;;;;;;;;;;;-0.30;99.90;;;;;;5086881;28;19920;-67
2021/01/26 04:59:58;;;;;;;;;;;-0.30;99.90;;;;;;5075709;28;20288;-66
2021/01/26 05:02:28;;;;;;;;;;;-0.30;99.90;;;;;;5078989;28;19913;-67
2021/01/26 05:05:01;;;;;;;;;;;-0.30;99.90;;;;;;5102602;28;19912;-66
2021/01/26 05:07:32;;;;;;;;;;;-0.30;99.90;;;;;;5072971;28;19935;-67
2021/01/26 05:10:05;;;;;;;;;;;-0.30;99.90;;;;;;5087767;28;19931;-67
2021/01/26 05:12:36;;;;;;;;;;;-0.30;99.90;;;;;;5085295;28;19908;-66
2021/01/26 05:15:02;;;;;;;;;;;-0.30;99.90;;;;;;5092436;28;19908;-66
2021/01/26 05:17:33;;;;;;;;;;;-0.30;99.90;;;;;;5091846;28;19919;-67
2021/01/26 05:19:59;;;;;;;;;;;-0.30;99.90;;;;;;5094059;28;20345;-67
2021/01/26 05:22:37;;;;;;;;;;;-0.30;99.90;;;;;;5094474;28;20457;-67
2021/01/26 05:25:07;;;;;;;;;;;-0.30;99.90;;;;;;5088354;28;20387;-66
2021/01/26 05:27:33;;;;;;;;;;;-0.30;99.90;;;;;;5091850;28;19932;-66
2021/01/26 05:29:59;;;;;;;;;;;-0.40;99.90;;;;;;5096247;28;20326;-68
2021/01/26 05:32:26;;;;;;;;;;;-0.40;99.90;;;;;;5068951;28;19934;-66
2021/01/26 05:34:52;;;;;;;;;;;-0.40;99.90;;;;;;5083072;28;19919;-67
2021/01/26 05:37:18;;;;;;;;;;;-0.40;99.90;;;;;;5084584;28;19912;-67
2021/01/26 05:40:02;;;;;;;;;;;-0.40;99.90;;;;;;5080602;28;20261;-66
2021/01/26 05:42:28;;;;;;;;;;;-0.40;99.90;;;;;;5088596;28;19908;-67
2021/01/26 05:44:56;;;;;;;;;;;-0.50;99.90;;;;;;5090493;28;19912;-66
2021/01/26 05:47:23;;;;;;;;;;;-0.40;99.90;;;;;;5094178;28;19908;-66
2021/01/26 05:49:49;;;;;;;;;;;-0.50;99.90;;;;;;5088351;28;19920;-66
2021/01/26 05:52:15;;;;;;;;;;;-0.50;99.90;;;;;;5088972;28;19908;-67
2021/01/26 05:54:50;;;;;;;;;;;-0.50;99.90;;;;;;5088802;28;19961;-66
2021/01/26 05:57:23;;;;;;;;;;;-0.50;99.90;;;;;;5089849;28;19923;-67
2021/01/26 05:59:49;;;;;;;;;;;-0.50;99.90;;;;;;5089899;28;19919;-66
2021/01/26 06:02:16;;;;;;;;;;;-0.60;99.90;;;;;;5092843;28;20323;-66
2021/01/26 06:04:43;;;;;;;;;;;-0.60;99.90;;;;;;5092493;28;19966;-66
2021/01/26 06:07:29;;;;;;;;;;;-0.70;99.90;;;;;;5090485;28;19908;-67
2021/01/26 06:09:55;;;;;;;;;;;-0.70;99.90;;;;;;5084814;28;19917;-66
2021/01/26 06:12:24;;;;;;;;;;;-0.70;99.90;;;;;;5092160;28;19916;-66
2021/01/26 06:14:57;;;;;;;;;;;-0.70;99.90;;;;;;5089702;28;19909;-66
2021/01/26 06:17:34;;;;;;;;;;;-0.70;99.90;;;;;;5089969;28;19908;-67
2021/01/26 06:20:02;;;;;;;;;;;-0.70;99.90;;;;;;5084793;28;20408;-66
2021/01/26 06:22:28;;;;;;;;;;;-0.70;99.90;;;;;;5083986;28;20273;-67
2021/01/26 06:24:54;;;;;;;;;;;-0.70;99.90;;;;;;5083019;28;19919;-67
2021/01/26 06:27:39;;;;;;;;;;;-0.70;99.90;;;;;;5086660;28;19924;-66
2021/01/26 06:30:08;;;;;;;;;;;-0.70;99.90;;;;;;5087619;28;19935;-66
2021/01/26 06:32:36;;;;;;;;;;;-0.80;99.90;;;;;;5085111;28;19917;-66
2021/01/26 06:35:02;;;;;;;;;;;-0.80;99.90;;;;;;5090937;28;19909;-66
2021/01/26 06:37:34;;;;;;;;;;;-0.80;99.90;;;;;;5092140;28;19961;-66
2021/01/26 06:40:00;;;;;;;;;;;-0.80;99.90;;;;;;5094855;28;19915;-66
2021/01/26 06:42:45;;;;;;;;;;;-0.80;99.90;;;;;;5094158;28;19908;-66
2021/01/26 06:45:15;;;;;;;;;;;-0.80;99.90;;;;;;5091576;28;19915;-66
2021/01/26 06:47:44;;;;;;;;;;;-0.90;99.90;;;;;;5082966;28;19912;-66
2021/01/26 06:50:14;;;;;;;;;;;-0.90;99.90;;;;;;5092331;28;19916;-66
2021/01/26 06:52:58;;;;;;;;;;;-0.80;99.90;;;;;;5084246;28;19915;-67
2021/01/26 06:55:45;;;;;;;;;;;-0.80;99.90;;;;;;5077319;28;19919;-67
2021/01/26 06:58:18;;;;;;;;;;;-0.80;99.90;;;;;;5082034;28;19920;-66
2021/01/26 07:01:02;;;;;;;;;;;-0.80;99.90;;;;;;5087428;28;19912;-67
2021/01/26 07:03:46;;;;;;;;;;;-0.80;99.90;;;;;;5083333;28;19939;-66
2021/01/26 07:06:12;;;;;;;;;;;-0.80;99.90;;;;;;5082044;28;19931;-66
2021/01/26 07:08:53;;;;;;;;;;;-0.80;99.90;;;;;;5085650;28;20366;-66
2021/01/26 07:11:31;;;;;;;;;;;-0.90;99.90;;;;;;5082684;28;19919;-66
2021/01/26 07:13:58;;;;;;;;;;;-0.90;99.90;;;;;;5081785;28;19912;-66
2021/01/26 07:16:27;;;;;;;;;;;-0.90;99.90;;;;;;5085698;28;19919;-66
2021/01/26 07:18:55;;;;;;;;;;;-0.80;99.90;;;;;;5078886;28;19917;-66
2021/01/26 07:21:21;;;;;;;;;;;-0.90;99.90;;;;;;5079718;28;19912;-66
2021/01/26 07:23:47;;;;;;;;;;;-0.90;99.90;;;;;;5086371;28;19912;-66
2021/01/26 07:26:18;;;;;;;;;;;-0.80;99.90;;;;;;5087675;28;19923;-66
2021/01/26 07:28:57;;;;;;;;;;;-0.80;99.90;;;;;;5082032;28;19920;-66
2021/01/26 07:31:27;;;;;;;;;;;-0.90;99.90;;;;;;5081256;28;19919;-66
2021/01/26 07:33:56;;;;;;;;;;;-0.80;99.90;;;;;;5088871;28;19912;-66
2021/01/26 07:36:24;;;;;;;;;;;-0.80;99.90;;;;;;5081111;28;19915;-66
2021/01/26 07:39:02;;;;;;;;;;;-0.80;99.90;;;;;;5082226;28;19919;-66
2021/01/26 07:41:31;;;;;;;;;;;-0.80;99.90;;;;;;5082727;28;19919;-66
2021/01/26 07:44:02;;;;;;;;;;;-0.80;99.90;;;;;;5075977;28;19917;-66
2021/01/26 07:46:34;;;;;;;;;;;-0.80;99.90;;;;;;5077618;28;19927;-66
2021/01/26 07:49:06;;;;;;;;;;;-0.80;99.90;;;;;;5085859;28;20396;-66
2021/01/26 07:51:36;;;;;;;;;;;-0.80;99.90;;;;;;5085424;28;19916;-66
2021/01/26 07:54:05;;;;;;;;;;;-0.80;99.90;;;;;;5080910;28;20277;-66
2021/01/26 07:56:37;;;;;;;;;;;-0.80;99.90;;;;;;5079054;28;20285;-66
2021/01/26 07:59:05;;;;;;;;;;;-0.80;99.90;;;;;;5077896;28;19919;-66
2021/01/26 08:01:34;;;;;;;;;;;-0.80;99.90;;;;;;5089746;28;19919;-66
2021/01/26 08:04:01;;;;;;;;;;;-0.80;99.90;;;;;;5091914;28;19912;-66
2021/01/26 08:06:36;;;;;;;;;;;-0.80;99.90;;;;;;5092535;28;20467;-66
2021/01/26 08:09:04;;;;;;;;;;;-0.80;99.90;;;;;;5085834;28;19908;-66
2021/01/26 08:11:30;;;;;;;;;;;-0.90;99.90;;;;;;5091162;28;19912;-66
2021/01/26 08:14:04;;;;;;;;;;;-0.90;99.90;;;;;;5086138;28;19919;-66
2021/01/26 08:16:30;;;;;;;;;;;-0.90;99.90;;;;;;5087051;28;19913;-67
2021/01/26 08:18:56;;;;;;;;;;;-0.90;99.90;;;;;;5076673;28;19920;-66
2021/01/26 08:21:41;;;;;;;;;;;-0.90;99.90;;;;;;5085164;28;19908;-66
2021/01/26 08:24:22;;;;;;;;;;;-0.90;99.90;;;;;;5074108;28;19912;-66
2021/01/26 08:26:48;;;;;;;;;;;-0.90;99.90;;;;;;5078557;28;20134;-65
2021/01/26 08:29:33;;;;;;;;;;;-0.90;99.90;;;;;;5086931;28;20377;-66
2021/01/26 08:32:09;;;;;;;;;;;-0.90;99.90;;;;;;5077525;28;19923;-66
2021/01/26 08:34:35;;;;;;;;;;;-0.90;99.90;;;;;;5079583;28;19920;-66
2021/01/26 08:37:11;;;;;;;;;;;-0.90;99.90;;;;;;5082066;28;19923;-65
2021/01/26 08:39:37;;;;;;;;;;;-0.90;99.90;;;;;;5085490;28;20403;-66
2021/01/26 08:42:03;;;;;;;;;;;-0.90;99.90;;;;;;5080588;28;19912;-66
2021/01/26 08:44:29;;;;;;;;;;;-0.90;99.90;;;;;;5081180;28;19920;-66
2021/01/26 08:46:55;;;;;;;;;;;-0.90;99.90;;;;;;5082234;28;19913;-66
2021/01/26 08:49:24;;;;;;;;;;;-0.90;99.90;;;;;;5081332;28;19920;-66
2021/01/26 08:51:50;;;;;;;;;;;-0.90;99.90;;;;;;5083374;28;20304;-66
2021/01/26 08:54:35;;;;;;;;;;;-1.00;99.90;;;;;;5083322;28;20284;-66
2021/01/26 08:57:00;;;;;;;;;;;-1.00;99.90;;;;;;5081404;28;20006;-66
2021/01/26 08:59:29;;;;;;;;;;;-0.90;99.90;;;;;;5086354;28;19922;-66
2021/01/26 09:01:55;;;;;;;;;;;-0.90;99.90;;;;;;5082409;28;19913;-66
2021/01/26 09:04:27;;;;;;;;;;;-0.80;99.90;;;;;;5083269;28;19966;-66
2021/01/26 09:06:53;;;;;;;;;;;-0.80;99.90;;;;;;5081384;28;19916;-66
2021/01/26 09:09:19;;;;;;;;;;;-0.70;99.90;;;;;;5082802;28;19924;-66
2021/01/26 09:11:45;;;;;;;;;;;-0.70;99.90;;;;;;5084489;28;19916;-66
2021/01/26 09:14:14;;;;;;;;;;;-0.70;99.90;;;;;;5081848;28;20379;-66
2021/01/26 09:16:41;;;;;;;;;;;-0.60;99.90;;;;;;5078499;28;19912;-66
2021/01/26 09:19:26;;;;;;;;;;;-0.60;99.90;;;;;;5085249;28;19924;-66
2021/01/26 09:21:52;;;;;;;;;;;-0.50;99.90;;;;;;5081917;28;19920;-67
2021/01/26 09:24:22;;;;;;;;;;;-0.50;99.90;;;;;;5087396;28;19920;-67
2021/01/26 09:26:48;;;;;;;;;;;-0.50;99.90;;;;;;5084225;28;19924;-67
2021/01/26 09:29:21;;;;;;;;;;;-0.50;99.90;;;;;;5084263;28;19930;-67
2021/01/26 09:31:47;;;;;;;;;;;-0.50;99.90;;;;;;5079119;28;19923;-67
2021/01/26 09:34:13;;;;;;;;;;;-0.50;99.90;;;;;;5083471;28;19920;-67
2021/01/26 09:36:39;;;;;;;;;;;-0.40;99.90;;;;;;5085799;28;19978;-67
2021/01/26 09:39:05;;;;;;;;;;;-0.30;99.90;;;;;;5083815;28;19920;-67
2021/01/26 09:41:32;;;;;;;;;;;-0.20;99.90;;;;;;5091372;28;19908;-67
2021/01/26 09:44:02;;;;;;;;;;;-0.10;99.90;;;;;;5087292;28;19924;-67
2021/01/26 09:46:35;;;;;;;;;;;-0.10;99.90;;;;;;5080704;28;19916;-67
2021/01/26 09:49:15;;;;;;;;;;;-0.10;99.90;;;;;;5079560;28;19912;-67
2021/01/26 09:51:59;;;;;;;;;;;0.00;99.90;;;;;;5085792;28;19946;-66
2021/01/26 09:54:26;;;;;;;;;;;0.10;99.90;;;;;;5073554;28;19927;-66
2021/01/26 09:56:52;;;;;;;;;;;0.10;99.90;;;;;;5084178;28;19916;-66
2021/01/26 09:59:18;;;;;;;;;;;0.20;99.90;;;;;;5075854;28;19916;-66
2021/01/26 10:01:45;;;;;;;;;;;0.20;99.90;;;;;;5084414;28;20457;-66
2021/01/26 10:04:11;;;;;;;;;;;0.20;99.90;;;;;;5078830;28;19920;-66
2021/01/26 10:06:37;;;;;;;;;;;0.30;99.90;;;;;;5080914;28;19916;-66
2021/01/26 10:09:18;;;;;;;;;;;0.40;99.90;;;;;;5075800;28;19974;-66
2021/01/26 10:11:44;;;;;;;;;;;0.50;99.90;;;;;;5074616;28;19920;-66
2021/01/26 10:14:26;;;;;;;;;;;0.50;99.90;;;;;;5082487;28;19924;-66
2021/01/26 10:16:55;;;;;;;;;;;0.60;99.90;;;;;;5075461;28;20395;-66
2021/01/26 10:19:31;;;;;;;;;;;0.60;99.90;;;;;;5077658;28;19913;-66
2021/01/26 10:22:09;;;;;;;;;;;0.70;99.90;;;;;;5082490;28;19948;-66
2021/01/26 10:24:35;;;;;;;;;;;0.70;99.90;;;;;;5080555;28;19916;-66
2021/01/26 10:27:04;;;;;;;;;;;0.70;99.90;;;;;;5077940;28;19943;-66
2021/01/26 10:29:31;;;;;;;;;;;0.70;99.90;;;;;;5082172;28;19919;-66
2021/01/26 10:31:59;;;;;;;;;;;0.70;99.90;;;;;;5079837;28;19919;-66
2021/01/26 10:34:31;;;;;;;;;;;0.80;99.90;;;;;;5082364;28;19912;-66
2021/01/26 10:37:15;;;;;;;;;;;0.90;99.90;;;;;;5082864;28;20020;-66
2021/01/26 10:39:41;;;;;;;;;;;1.00;99.90;;;;;;5080096;28;19936;-66
2021/01/26 10:42:12;;;;;;;;;;;1.00;99.90;;;;;;5082739;28;19923;-66
2021/01/26 10:45:05;;;;;;;;;;;1.10;99.90;;;;;;5083827;28;20423;-66
2021/01/26 10:47:31;;;;;;;;;;;1.20;99.90;;;;;;5085669;28;20304;-66
2021/01/26 10:49:58;;;;;;;;;;;1.30;99.90;;;;;;5083210;28;19921;-66
2021/01/26 10:52:53;;;;;;;;;;;1.30;99.90;;;;;;5092608;28;20380;-66
2021/01/26 10:55:20;;;;;;;;;;;1.30;99.90;;;;;;5082555;28;20281;-66
2021/01/26 10:57:46;;;;;;;;;;;1.30;99.90;;;;;;5089423;28;19924;-66
2021/01/26 11:00:13;;;;;;;;;;;1.50;99.90;;;;;;5078188;28;20789;-66
2021/01/26 11:02:39;;;;;;;;;;;1.40;99.90;;;;;;5082359;28;20509;-66
2021/01/26 11:05:06;;;;;;;;;;;1.50;99.90;;;;;;5088143;28;19912;-66
2021/01/26 11:07:32;;;;;;;;;;;1.40;99.90;;;;;;5076596;28;19920;-66
2021/01/26 11:09:58;;;;;;;;;;;1.50;99.90;;;;;;5093914;28;19920;-66
2021/01/26 11:12:24;;;;;;;;;;;1.60;99.90;;;;;;5084736;28;19920;-66
2021/01/26 11:14:50;;;;;;;;;;;1.60;99.90;;;;;;5075901;28;19912;-66
2021/01/26 11:17:16;;;;;;;;;;;1.60;99.90;;;;;;5083367;28;19912;-67
2021/01/26 11:19:46;;;;;;;;;;;1.70;99.90;;;;;;5077173;28;19912;-67
2021/01/26 11:22:12;;;;;;;;;;;1.60;99.90;;;;;;5077361;28;19912;-67
2021/01/26 11:24:38;;;;;;;;;;;1.60;99.90;;;;;;5085424;28;20349;-67
2021/01/26 11:27:04;;;;;;;;;;;1.60;99.90;;;;;;5087067;28;19931;-67
2021/01/26 11:29:30;;;;;;;;;;;1.60;99.90;;;;;;5078122;28;19920;-67
2021/01/26 11:31:56;;;;;;;;;;;1.60;99.90;;;;;;5087304;28;19962;-67
2021/01/26 11:34:22;;;;;;;;;;;1.70;99.90;;;;;;5074780;28;19919;-67
2021/01/26 11:36:48;;;;;;;;;;;1.70;99.90;;;;;;5080796;28;20327;-68
2021/01/26 11:39:14;;;;;;;;;;;1.70;99.90;;;;;;5081289;28;20709;-67
2021/01/26 11:41:40;;;;;;;;;;;1.70;99.90;;;;;;5080814;28;19925;-67
2021/01/26 11:44:06;;;;;;;;;;;1.90;99.90;;;;;;5083080;28;20258;-67
2021/01/26 11:46:32;;;;;;;;;;;1.90;99.90;;;;;;5080784;28;20270;-67
2021/01/26 11:48:58;;;;;;;;;;;2.00;99.90;;;;;;5079672;28;19923;-67
2021/01/26 11:51:24;;;;;;;;;;;2.10;99.90;;;;;;5081425;28;19928;-67
2021/01/26 11:53:51;;;;;;;;;;;2.10;99.90;;;;;;5087962;28;19916;-67
2021/01/26 11:56:19;;;;;;;;;;;2.10;99.90;;;;;;5079282;28;19917;-67
2021/01/26 11:58:45;;;;;;;;;;;2.00;99.90;;;;;;5077597;28;19912;-67
2021/01/26 12:01:11;;;;;;;;;;;2.00;99.90;;;;;;5085780;28;19923;-67
2021/01/26 12:03:37;;;;;;;;;;;2.00;99.90;;;;;;5082544;28;19916;-67
2021/01/26 12:06:03;;;;;;;;;;;2.00;99.90;;;;;;5080313;28;19923;-67
2021/01/26 12:08:29;;;;;;;;;;;2.00;99.90;;;;;;5080379;28;19924;-67
2021/01/26 12:10:55;;;;;;;;;;;2.00;99.90;;;;;;5080337;28;19964;-67
2021/01/26 12:13:20;;;;;;;;;;;1.90;99.90;;;;;;5081885;28;19916;-67
2021/01/26 12:15:46;;;;;;;;;;;1.80;99.90;;;;;;5081753;28;19920;-67
2021/01/26 12:18:12;;;;;;;;;;;1.70;99.90;;;;;;5081973;28;19920;-67
2021/01/26 12:20:38;;;;;;;;;;;1.50;99.90;;;;;;5081579;28;19912;-67
2021/01/26 12:23:04;;;;;;;;;;;1.50;99.90;;;;;;5074925;28;20297;-67
2021/01/26 12:25:31;;;;;;;;;;;1.40;99.90;;;;;;5084450;28;19962;-66
2021/01/26 12:27:58;;;;;;;;;;;1.40;99.90;;;;;;5077066;28;20217;-66
2021/01/26 12:30:24;;;;;;;;;;;1.30;99.90;;;;;;5079210;28;20323;-66
2021/01/26 12:32:50;;;;;;;;;;;1.30;99.90;;;;;;5088058;28;19917;-66
2021/01/26 12:35:18;;;;;;;;;;;1.20;99.90;;;;;;5091361;28;19920;-66
2021/01/26 12:37:44;;;;;;;;;;;1.20;99.90;;;;;;5079647;28;19974;-66
2021/01/26 12:40:10;;;;;;;;;;;1.10;99.90;;;;;;5080075;28;19963;-66
2021/01/26 12:42:36;;;;;;;;;;;1.10;99.90;;;;;;5079893;28;19939;-66
2021/01/26 12:45:03;;;;;;;;;;;1.10;99.90;;;;;;5073891;28;19916;-66
2021/01/26 12:47:28;;;;;;;;;;;1.10;99.90;;;;;;5077857;28;19912;-67
2021/01/26 12:49:54;;;;;;;;;;;1.10;99.90;;;;;;5082116;28;19981;-67
2021/01/26 12:52:20;;;;;;;;;;;1.10;99.90;;;;;;5080240;28;19908;-65
2021/01/26 12:54:46;;;;;;;;;;;1.00;99.90;;;;;;5079162;28;19970;-66
2021/01/26 12:57:12;;;;;;;;;;;1.00;99.90;;;;;;5080534;28;19963;-66
2021/01/26 12:59:38;;;;;;;;;;;1.00;99.90;;;;;;5079225;28;19917;-66
2021/01/26 13:02:04;;;;;;;;;;;0.90;99.90;;;;;;5077679;28;19912;-65
2021/01/26 13:04:30;;;;;;;;;;;0.90;99.90;;;;;;5080043;28;19927;-66
2021/01/26 13:06:56;;;;;;;;;;;0.90;99.90;;;;;;5081848;28;19965;-66
2021/01/26 13:09:22;;;;;;;;;;;0.90;99.90;;;;;;5082497;28;19916;-66
2021/01/26 13:11:48;;;;;;;;;;;0.90;99.90;;;;;;5085908;28;19928;-66
2021/01/26 13:14:14;;;;;;;;;;;0.90;99.90;;;;;;5088779;28;19920;-66
2021/01/26 13:16:40;;;;;;;;;;;0.90;99.90;;;;;;5080016;28;19912;-66
2021/01/26 13:19:06;;;;;;;;;;;0.80;99.90;;;;;;5087487;28;20289;-66
2021/01/26 13:21:33;;;;;;;;;;;0.80;99.90;;;;;;5083118;28;19908;-66
2021/01/26 13:23:59;;;;;;;;;;;0.80;99.90;;;;;;5083014;28;19920;-66
2021/01/26 13:26:25;;;;;;;;;;;0.80;99.90;;;;;;5090898;28;19927;-66
2021/01/26 13:28:51;;;;;;;;;;;0.80;99.90;;;;;;5091945;28;19920;-66
2021/01/26 13:31:17;;;;;;;;;;;0.80;99.90;;;;;;5086383;28;19946;-66
2021/01/26 13:33:43;;;;;;;;;;;0.80;99.90;;;;;;5090386;28;19999;-66
2021/01/26 13:36:12;;;;;;;;;;;0.80;99.90;;;;;;5083737;28;19920;-66
2021/01/26 13:38:39;;;;;;;;;;;0.80;99.90;;;;;;5088185;28;19908;-66
2021/01/26 13:41:05;;;;;;;;;;;0.70;99.90;;;;;;5088958;28;20363;-66
2021/01/26 13:43:31;;;;;;;;;;;0.70;99.90;;;;;;5084797;28;19920;-66
2021/01/26 13:45:56;;;;;;;;;;;0.70;99.90;;;;;;5083045;28;20308;-66
2021/01/26 13:48:22;;;;;;;;;;;0.70;99.90;;;;;;5089610;28;19920;-66
2021/01/26 13:50:48;;;;;;;;;;;0.70;99.90;;;;;;5084313;28;19920;-66
2021/01/26 13:53:14;;;;;;;;;;;0.80;99.90;;;;;;5088664;28;19916;-66
2021/01/26 13:55:40;;;;;;;;;;;0.80;99.90;;;;;;5084451;28;19923;-66
2021/01/26 13:58:06;;;;;;;;;;;0.90;99.90;;;;;;5081169;28;20014;-66
2021/01/26 14:00:33;;;;;;;;;;;0.80;99.90;;;;;;5086089;28;19920;-66
2021/01/26 14:03:01;;;;;;;;;;;0.80;99.90;;;;;;5083362;28;19916;-66
2021/01/26 14:05:27;;;;;;;;;;;0.80;99.90;;;;;;5081400;28;20357;-66
2021/01/26 14:07:53;;;;;;;;;;;0.80;99.90;;;;;;5081860;28;19930;-66
2021/01/26 14:10:20;;;;;;;;;;;0.80;99.90;;;;;;5086430;28;19932;-66
2021/01/26 14:12:46;;;;;;;;;;;0.70;99.90;;;;;;5080182;28;19912;-66
2021/01/26 14:15:12;;;;;;;;;;;0.70;99.90;;;;;;5087540;28;19916;-66
2021/01/26 14:17:38;;;;;;;;;;;0.70;99.90;;;;;;5083482;28;19912;-66
2021/01/26 14:20:04;;;;;;;;;;;0.70;99.90;;;;;;5075110;28;20358;-66
2021/01/26 14:22:30;;;;;;;;;;;0.70;99.90;;;;;;5079406;28;19916;-66
2021/01/26 14:24:56;;;;;;;;;;;0.70;99.90;;;;;;5080539;28;19912;-66
2021/01/26 14:27:22;;;;;;;;;;;0.70;99.90;;;;;;5081141;28;19932;-66
2021/01/26 14:29:49;;;;;;;;;;;0.70;99.90;;;;;;5088367;28;20257;-66
2021/01/26 14:32:15;;;;;;;;;;;0.70;99.90;;;;;;5087413;28;19936;-65
2021/01/26 14:34:41;;;;;;;;;;;0.70;99.90;;;;;;5078376;28;20007;-66
2021/01/26 14:37:07;;;;;;;;;;;0.70;99.90;;;;;;5088675;28;20023;-65
2021/01/26 14:39:33;;;;;;;;;;;0.70;99.90;;;;;;5089483;28;19963;-66